Churchville, Iowa
Current Conditions -  °F | °C
As of 1:54 AM on Friday 24 Oct 2014 (Local Time) from KDSM Reporting Station
Moderate Fog Moderate Fog  
Wind Chill: 52°   Ceiling: 100
Heat Index: 52°   Visibility: 0.12mi
Dew Point: 51°   Wind: 5mph
Humidity: 97%   Direction: 170°S
Pressure: 30.03"   Gusts: NA
Location:  41.4552°N, 93.6809°W
Report Text: KDSM 240654Z 17004KT 1/8SM R31/1000FT FG VV001 11/11 A3003 RMK AO2 TWR VIS 1/4 SLP167 T01110106 $
Loading
Personal Weather Stations






























Interactive Weather Map
Tropical Storm Tracking
New forecast layout! Learn more

10-Day Weather Forecast

Advertisements
Track Severe Weather on mobile